createdAt,value
2023-02-27T00:00:42.937Z,1.03
2023-02-27T00:03:27.725Z,0.95
2023-02-27T00:05:57.851Z,1.22
2023-02-27T00:08:26.865Z,1.01
2023-02-27T00:10:55.556Z,0.75
2023-02-27T00:13:23.928Z,0.72
2023-02-27T00:15:52.637Z,0.69
2023-02-27T00:18:21.020Z,0.66
2023-02-27T00:20:50.096Z,0.68
2023-02-27T00:23:19.834Z,0.77
2023-02-27T00:25:48.504Z,0.47
2023-02-27T00:28:16.935Z,0.39
2023-02-27T00:30:45.590Z,0.22
2023-02-27T00:33:13.873Z,0.27
2023-02-27T00:35:42.540Z,0.22
2023-02-27T00:38:10.981Z,0.19
2023-02-27T00:40:41.310Z,0.43
2023-02-27T00:43:09.540Z,0.26
2023-02-27T00:45:38.049Z,0.28
2023-02-27T00:48:06.352Z,0.42
2023-02-27T00:50:34.963Z,0.50
2023-02-27T00:53:03.117Z,0.57
2023-02-27T00:55:31.676Z,0.68
2023-02-27T00:58:01.388Z,1.15
2023-02-27T01:00:30.162Z,0.90
2023-02-27T01:02:58.453Z,0.66
2023-02-27T01:05:27.274Z,0.63
2023-02-27T01:07:56.681Z,0.63
2023-02-27T01:10:25.477Z,0.63
2023-02-27T01:12:53.665Z,0.58
2023-02-27T01:15:23.575Z,0.64
2023-02-27T01:17:51.970Z,0.40
2023-02-27T01:20:20.694Z,0.35
2023-02-27T01:22:48.909Z,0.48
2023-02-27T01:25:17.601Z,0.62
2023-02-27T01:27:45.838Z,0.59
2023-02-27T01:30:15.864Z,0.69
2023-02-27T01:32:45.590Z,0.91
2023-02-27T01:35:14.522Z,0.75
2023-02-27T01:37:42.756Z,0.65
2023-02-27T01:40:12.769Z,0.98
2023-02-27T01:42:41.052Z,0.92
2023-02-27T01:45:27.119Z,1.52
2023-02-27T01:48:00.593Z,1.39
2023-02-27T01:50:29.214Z,1.17
2023-02-27T01:52:59.482Z,1.39
2023-02-27T01:55:29.881Z,1.43
2023-02-27T01:57:58.690Z,1.27
2023-02-27T02:00:27.752Z,1.29
2023-02-27T02:03:02.064Z,1.65
2023-02-27T02:05:31.405Z,1.34
2023-02-27T02:08:00.258Z,1.49
2023-02-27T02:10:29.270Z,1.48
2023-02-27T02:12:57.776Z,1.40
2023-02-27T02:15:33.345Z,1.71
2023-02-27T02:18:16.893Z,1.76
2023-02-27T02:21:24.815Z,1.88
2023-02-27T02:24:21.036Z,1.87
2023-02-27T02:26:56.422Z,1.72
2023-02-27T02:30:02.067Z,1.88
2023-02-27T02:33:04.548Z,1.83
2023-02-27T02:36:15.880Z,1.89
2023-02-27T02:39:05.359Z,2.08
2023-02-27T02:41:45.250Z,1.78
2023-02-27T02:44:19.330Z,1.61
2023-02-27T02:46:51.275Z,1.62
2023-02-27T02:49:24.929Z,1.64
2023-02-27T02:51:57.298Z,1.62
2023-02-27T02:54:30.132Z,1.58
2023-02-27T02:57:05.543Z,1.67
2023-02-27T02:59:37.910Z,1.56
2023-02-27T03:02:08.209Z,1.50
2023-02-27T03:04:41.122Z,1.58
2023-02-27T03:07:12.869Z,1.61
2023-02-27T03:09:43.892Z,1.60
2023-02-27T03:12:16.740Z,1.69
2023-02-27T03:14:51.637Z,1.60
2023-02-27T03:17:24.843Z,1.59
2023-02-27T03:19:58.280Z,1.60
2023-02-27T03:22:31.011Z,1.53
2023-02-27T03:25:00.924Z,1.33
2023-02-27T03:27:34.712Z,1.51
2023-02-27T03:30:07.111Z,1.43
2023-02-27T03:32:43.477Z,1.49
2023-02-27T03:35:12.794Z,1.23
2023-02-27T03:37:55.352Z,1.57
2023-02-27T03:40:28.269Z,1.41
2023-02-27T03:43:03.358Z,1.59
2023-02-27T03:45:37.605Z,1.56
2023-02-27T03:48:06.950Z,1.36
2023-02-27T03:50:35.762Z,1.22
2023-02-27T03:53:05.995Z,1.40
2023-02-27T03:55:37.242Z,1.45
2023-02-27T03:58:07.060Z,1.41
2023-02-27T04:00:35.998Z,1.27
2023-02-27T04:03:04.374Z,1.18
2023-02-27T04:05:33.054Z,1.13
2023-02-27T04:08:12.541Z,1.56
2023-02-27T04:10:55.742Z,1.51
2023-02-27T04:13:41.127Z,1.45
2023-02-27T04:16:44.786Z,1.68
2023-02-27T04:19:19.882Z,1.39
2023-02-27T04:21:58.009Z,1.40
2023-02-27T04:24:35.718Z,1.46
2023-02-27T04:27:10.111Z,1.24
2023-02-27T04:29:46.342Z,1.33
2023-02-27T04:32:20.133Z,1.29
2023-02-27T04:34:51.824Z,1.14
2023-02-27T04:37:25.152Z,1.18
2023-02-27T04:39:56.196Z,1.23
2023-02-27T04:42:24.776Z,1.69
2023-02-27T04:44:57.033Z,1.22
2023-02-27T04:47:26.860Z,1.13
2023-02-27T04:50:00.274Z,1.21
2023-02-27T04:52:33.406Z,1.12
2023-02-27T04:55:06.843Z,1.19
2023-02-27T04:57:39.038Z,1.11
2023-02-27T05:00:12.156Z,1.09
2023-02-27T05:02:43.948Z,1.03
2023-02-27T05:05:15.898Z,1.05
2023-02-27T05:07:47.146Z,1.00
2023-02-27T05:10:17.070Z,1.00
2023-02-27T05:12:49.350Z,1.09
2023-02-27T05:15:23.864Z,1.12
2023-02-27T05:17:59.955Z,1.16
2023-02-27T05:20:32.596Z,1.09
2023-02-27T05:23:06.588Z,1.07
2023-02-27T05:25:38.903Z,1.15
2023-02-27T05:28:10.475Z,1.07
2023-02-27T05:30:42.036Z,1.45
2023-02-27T05:33:15.078Z,1.22
2023-02-27T05:35:47.356Z,1.13
2023-02-27T05:38:18.530Z,0.93
2023-02-27T05:40:49.176Z,0.89
2023-02-27T05:43:20.480Z,0.99
2023-02-27T05:45:53.984Z,1.05
2023-02-27T05:48:26.362Z,0.92
2023-02-27T05:50:54.803Z,0.45
2023-02-27T05:53:27.201Z,0.83
2023-02-27T05:55:57.748Z,0.77
2023-02-27T05:58:28.938Z,0.86
2023-02-27T06:01:00.732Z,0.92
2023-02-27T06:03:31.047Z,0.87
2023-02-27T06:06:01.615Z,0.93
2023-02-27T06:08:30.156Z,0.51
2023-02-27T06:10:58.504Z,0.59
2023-02-27T06:13:27.406Z,0.73
2023-02-27T06:15:55.664Z,0.65
2023-02-27T06:18:25.602Z,0.84
2023-02-27T06:20:53.878Z,0.70
2023-02-27T06:23:22.387Z,0.69
2023-02-27T06:25:50.950Z,0.86
2023-02-27T06:28:19.543Z,0.82
2023-02-27T06:30:47.986Z,0.94
2023-02-27T06:33:16.531Z,0.88
2023-02-27T06:35:49.103Z,1.40
2023-02-27T06:38:18.032Z,1.15
2023-02-27T06:40:46.420Z,1.23
2023-02-27T06:43:15.490Z,1.15
2023-02-27T06:45:44.352Z,1.29
2023-02-27T06:48:15.004Z,1.21
2023-02-27T06:50:43.400Z,1.20
2023-02-27T06:53:13.404Z,1.61
2023-02-27T06:55:42.224Z,1.40
2023-02-27T06:58:10.956Z,1.61
2023-02-27T07:00:39.187Z,1.29
2023-02-27T07:03:07.843Z,1.49
2023-02-27T07:05:38.667Z,1.65
2023-02-27T07:08:07.423Z,1.63
2023-02-27T07:10:37.288Z,1.99
2023-02-27T07:13:05.786Z,1.83
2023-02-27T07:15:34.393Z,1.94
2023-02-27T07:18:03.008Z,1.73
2023-02-27T07:20:31.393Z,1.62
2023-02-27T07:23:00.141Z,1.76
2023-02-27T07:25:28.613Z,1.62
2023-02-27T07:27:58.564Z,2.13
2023-02-27T07:30:26.957Z,2.10
2023-02-27T07:32:55.550Z,2.46
2023-02-27T07:35:23.805Z,2.71
2023-02-27T07:37:52.937Z,2.90
2023-02-27T07:40:21.294Z,3.21
2023-02-27T07:42:52.691Z,3.40
2023-02-27T07:45:23.342Z,3.76
2023-02-27T07:47:52.015Z,3.66
2023-02-27T07:50:20.308Z,3.70
2023-02-27T07:52:49.090Z,3.82
2023-02-27T07:55:17.678Z,4.09
2023-02-27T07:57:46.959Z,4.45
2023-02-27T08:00:16.126Z,4.88
2023-02-27T08:02:46.223Z,5.36
2023-02-27T08:05:15.202Z,5.12
2023-02-27T08:07:43.872Z,5.14
2023-02-27T08:10:13.441Z,5.20
2023-02-27T08:12:42.105Z,4.60
2023-02-27T08:15:11.371Z,4.65
2023-02-27T08:17:39.956Z,4.65
2023-02-27T08:20:13.186Z,5.12
2023-02-27T08:22:41.978Z,5.12
2023-02-27T08:25:12.309Z,5.58
2023-02-27T08:27:41.416Z,5.73
2023-02-27T08:30:13.522Z,6.01
2023-02-27T08:32:42.222Z,5.87
2023-02-27T08:35:12.308Z,6.38
2023-02-27T08:37:40.969Z,6.24
2023-02-27T08:40:11.025Z,6.45
2023-02-27T08:42:40.408Z,5.57
2023-02-27T08:45:11.240Z,5.28
2023-02-27T08:47:39.795Z,4.73
2023-02-27T08:50:09.159Z,4.68
2023-02-27T08:52:39.296Z,4.53
2023-02-27T08:55:09.130Z,4.19
2023-02-27T08:57:37.837Z,3.80
2023-02-27T09:00:07.925Z,3.96
2023-02-27T09:02:36.657Z,3.86
2023-02-27T09:05:05.285Z,3.89
2023-02-27T09:07:34.710Z,4.13
2023-02-27T09:10:04.936Z,4.61
2023-02-27T09:12:33.462Z,4.73
2023-02-27T09:15:01.757Z,4.83
2023-02-27T09:17:30.324Z,4.82
2023-02-27T09:19:58.757Z,4.67
2023-02-27T09:22:27.277Z,4.59
2023-02-27T09:24:56.181Z,4.18
2023-02-27T09:27:26.462Z,4.04
2023-02-27T09:29:56.552Z,3.58
2023-02-27T09:32:25.836Z,3.74
2023-02-27T09:34:54.474Z,3.49
2023-02-27T09:37:25.084Z,3.45
2023-02-27T09:39:53.422Z,3.57
2023-02-27T09:42:25.450Z,4.04
2023-02-27T09:44:55.101Z,4.14
2023-02-27T09:47:26.205Z,4.43
2023-02-27T09:50:01.521Z,4.79
2023-02-27T09:52:31.567Z,5.05
2023-02-27T09:55:00.652Z,5.31
2023-02-27T09:57:40.486Z,6.90
2023-02-27T10:00:17.461Z,9.78
2023-02-27T10:02:54.308Z,12.28
2023-02-27T10:05:29.704Z,11.88
2023-02-27T10:08:07.891Z,10.18
2023-02-27T10:10:40.668Z,8.08
2023-02-27T10:13:40.889Z,6.23
2023-02-27T10:16:11.232Z,5.23
2023-02-27T10:18:48.104Z,5.35
2023-02-27T10:21:20.246Z,5.73
2023-02-27T10:23:54.505Z,5.95
2023-02-27T10:26:24.514Z,5.64
2023-02-27T10:28:54.908Z,5.53
2023-02-27T10:31:26.301Z,4.90
2023-02-27T10:33:55.481Z,4.30
2023-02-27T10:36:33.691Z,4.21
2023-02-27T10:39:07.999Z,4.39
2023-02-27T10:41:37.472Z,3.94
2023-02-27T10:44:07.530Z,3.97
2023-02-27T10:46:38.308Z,4.03
2023-02-27T10:49:18.323Z,4.16
2023-02-27T10:51:48.236Z,3.90
2023-02-27T10:54:26.964Z,4.50
2023-02-27T10:56:56.881Z,4.85
2023-02-27T10:59:28.228Z,5.57
2023-02-27T11:01:57.786Z,6.11
2023-02-27T11:04:36.632Z,8.05
2023-02-27T11:07:09.064Z,10.28
2023-02-27T11:09:37.858Z,10.83
2023-02-27T11:12:14.658Z,10.37
2023-02-27T11:14:51.940Z,9.56
2023-02-27T11:17:26.502Z,9.02
2023-02-27T11:19:54.948Z,7.76
2023-02-27T11:22:24.954Z,6.70
2023-02-27T11:24:54.861Z,5.68
2023-02-27T11:27:26.708Z,5.36
2023-02-27T11:30:01.891Z,5.71
2023-02-27T11:32:37.414Z,5.74
2023-02-27T11:35:07.179Z,5.58
2023-02-27T11:37:36.595Z,5.69
2023-02-27T11:40:19.515Z,5.85
2023-02-27T11:42:50.437Z,5.44
2023-02-27T11:46:04.291Z,5.49
2023-02-27T11:48:22.636Z,5.03
2023-02-27T11:51:17.806Z,5.50
2023-02-27T11:54:04.143Z,5.47
2023-02-27T11:56:37.505Z,5.49
2023-02-27T11:59:13.547Z,5.70
2023-02-27T12:01:49.475Z,5.36
2023-02-27T12:04:22.884Z,4.99
2023-02-27T12:06:55.558Z,5.15
2023-02-27T12:09:34.360Z,5.79
2023-02-27T12:12:04.538Z,5.99
2023-02-27T12:14:37.363Z,6.06
2023-02-27T12:17:14.239Z,5.96
2023-02-27T12:19:46.267Z,5.88
2023-02-27T12:22:20.504Z,5.76
2023-02-27T12:24:52.733Z,5.42
2023-02-27T12:27:23.991Z,5.09
2023-02-27T12:29:55.314Z,4.77
2023-02-27T12:32:28.117Z,4.47
2023-02-27T12:35:00.349Z,4.20
2023-02-27T12:37:30.505Z,4.19
2023-02-27T12:40:00.828Z,4.27
2023-02-27T12:42:54.716Z,4.81
2023-02-27T12:45:44.571Z,4.86
2023-02-27T12:48:25.248Z,4.84
2023-02-27T12:50:57.596Z,4.48
2023-02-27T12:53:40.733Z,4.48
2023-02-27T12:56:13.934Z,4.08
2023-02-27T12:58:49.951Z,3.85
2023-02-27T13:01:29.187Z,3.83
2023-02-27T13:04:01.614Z,3.86
2023-02-27T13:06:34.945Z,3.77
2023-02-27T13:09:13.213Z,4.08
2023-02-27T13:11:48.527Z,3.91
2023-02-27T13:14:30.041Z,3.96
2023-02-27T13:17:03.448Z,3.74
2023-02-27T13:19:37.135Z,3.73
2023-02-27T13:22:13.220Z,3.72
2023-02-27T13:24:45.139Z,3.61
2023-02-27T13:27:19.378Z,3.82
2023-02-27T13:29:56.860Z,4.02
2023-02-27T13:32:41.688Z,4.07
2023-02-27T13:35:25.844Z,4.45
2023-02-27T13:37:56.103Z,4.13
2023-02-27T13:40:37.398Z,4.59
2023-02-27T13:43:27.731Z,4.37
2023-02-27T13:45:58.477Z,4.38
2023-02-27T13:48:45.279Z,4.45
2023-02-27T13:51:51.264Z,3.99
2023-02-27T13:54:25.474Z,3.15
2023-02-27T13:57:25.817Z,3.10
2023-02-27T13:59:59.915Z,3.36
2023-02-27T14:02:57.914Z,3.80
2023-02-27T14:05:32.894Z,3.82
2023-02-27T14:08:12.613Z,3.09
2023-02-27T14:10:42.205Z,2.79
2023-02-27T14:13:40.595Z,2.62
2023-02-27T14:16:11.153Z,1.84
2023-02-27T14:19:22.949Z,2.32
2023-02-27T14:22:00.368Z,2.43
2023-02-27T14:24:36.478Z,2.81
2023-02-27T14:27:05.725Z,3.00
2023-02-27T14:29:35.589Z,3.22
2023-02-27T14:32:07.146Z,2.99
2023-02-27T14:34:37.450Z,3.14
2023-02-27T14:37:08.095Z,3.19
2023-02-27T14:39:38.971Z,3.32
2023-02-27T14:42:22.048Z,3.44
2023-02-27T14:44:52.158Z,2.81
2023-02-27T14:47:24.595Z,2.73
2023-02-27T14:49:53.364Z,2.51
2023-02-27T14:52:23.813Z,2.63
2023-02-27T14:54:55.019Z,2.26
2023-02-27T14:57:27.073Z,2.13
2023-02-27T14:59:56.017Z,2.07
2023-02-27T15:02:26.550Z,2.19
2023-02-27T15:05:15.783Z,2.33
2023-02-27T15:07:47.781Z,2.38
2023-02-27T15:10:24.156Z,2.34
2023-02-27T15:12:53.455Z,2.05
2023-02-27T15:15:22.976Z,2.14
2023-02-27T15:17:53.897Z,2.04
2023-02-27T15:20:27.591Z,2.17
2023-02-27T15:22:56.048Z,2.02
2023-02-27T15:25:32.042Z,2.34
2023-02-27T15:28:03.887Z,2.31
2023-02-27T15:30:32.826Z,2.13
2023-02-27T15:33:02.996Z,2.08
2023-02-27T15:35:36.683Z,1.98
2023-02-27T15:38:06.245Z,1.78
2023-02-27T15:40:37.522Z,1.99
2023-02-27T15:43:06.117Z,1.91
2023-02-27T15:45:36.335Z,2.00
2023-02-27T15:48:05.166Z,1.69
2023-02-27T15:50:36.577Z,1.82
2023-02-27T15:53:06.891Z,1.77
2023-02-27T15:55:40.311Z,1.91
2023-02-27T15:58:21.681Z,1.79
2023-02-27T16:00:50.446Z,1.50
2023-02-27T16:03:23.635Z,1.73
2023-02-27T16:05:53.207Z,1.52
2023-02-27T16:08:21.775Z,1.40
2023-02-27T16:10:52.435Z,1.27
2023-02-27T16:13:22.265Z,1.32
2023-02-27T16:16:01.929Z,1.41
2023-02-27T16:18:34.841Z,1.25
2023-02-27T16:21:12.509Z,1.31
2023-02-27T16:23:41.116Z,0.66
2023-02-27T16:26:24.600Z,1.27
2023-02-27T16:28:54.791Z,0.94
2023-02-27T16:31:29.472Z,1.11
2023-02-27T16:34:00.960Z,0.85
2023-02-27T16:36:31.127Z,0.73
2023-02-27T16:38:59.789Z,0.17
2023-02-27T16:41:29.975Z,0.45
2023-02-27T16:43:58.317Z,0.22
2023-02-27T16:46:27.053Z,0.22
2023-02-27T16:48:57.230Z,0.21
2023-02-27T16:51:28.460Z,0.25
2023-02-27T16:53:57.966Z,0.18
2023-02-27T16:56:38.586Z,0.25
2023-02-27T16:59:07.990Z,-0.01
2023-02-27T17:01:36.669Z,-0.12
2023-02-27T17:04:13.564Z,0.05
2023-02-27T17:06:48.634Z,0.02
2023-02-27T17:09:17.061Z,0.02
2023-02-27T17:11:47.030Z,0.13
2023-02-27T17:14:15.501Z,-0.12
2023-02-27T17:16:44.121Z,-0.31
2023-02-27T17:19:12.426Z,-0.19
2023-02-27T17:21:41.352Z,-0.20
2023-02-27T17:24:10.241Z,-0.36
2023-02-27T17:26:39.000Z,-0.38
2023-02-27T17:29:09.766Z,-0.15
2023-02-27T17:31:38.530Z,-0.54
2023-02-27T17:34:08.902Z,-0.68
2023-02-27T17:36:38.362Z,-0.43
2023-02-27T17:39:07.256Z,-0.60
2023-02-27T17:41:35.906Z,-0.43
2023-02-27T17:44:04.138Z,-0.65
2023-02-27T17:46:34.768Z,-0.33
2023-02-27T17:49:03.343Z,-0.65
2023-02-27T17:51:32.745Z,-0.40
2023-02-27T17:54:03.779Z,-0.24
2023-02-27T17:56:32.530Z,-0.03
2023-02-27T17:59:01.203Z,-0.54
2023-02-27T18:01:30.128Z,-0.69
2023-02-27T18:03:59.909Z,-0.35
2023-02-27T18:06:28.833Z,-0.47
2023-02-27T18:08:57.297Z,-0.35
2023-02-27T18:11:26.369Z,-0.26
2023-02-27T18:13:54.819Z,-0.39
2023-02-27T18:16:24.265Z,-0.26
2023-02-27T18:18:52.665Z,-0.30
2023-02-27T18:21:24.427Z,0.12
2023-02-27T18:23:53.392Z,0.03
2023-02-27T18:26:30.290Z,0.29
2023-02-27T18:29:00.614Z,0.08
2023-02-27T18:31:31.647Z,0.40
2023-02-27T18:34:00.521Z,0.15
2023-02-27T18:36:31.723Z,0.53
2023-02-27T18:39:01.095Z,0.36
2023-02-27T18:41:30.489Z,0.44
2023-02-27T18:43:59.694Z,0.42
2023-02-27T18:46:29.440Z,0.44
2023-02-27T18:48:58.351Z,0.23
2023-02-27T18:51:27.597Z,0.24
2023-02-27T18:53:58.517Z,0.26
2023-02-27T18:56:28.396Z,0.13
2023-02-27T18:59:02.107Z,0.14
2023-02-27T19:01:33.325Z,0.12
2023-02-27T19:04:05.055Z,-0.17
2023-02-27T19:06:35.285Z,0.12
2023-02-27T19:09:06.947Z,0.48
2023-02-27T19:11:36.014Z,0.32
2023-02-27T19:14:06.130Z,0.56
2023-02-27T19:16:35.482Z,0.47
2023-02-27T19:19:05.271Z,0.55
2023-02-27T19:21:34.357Z,0.53
2023-02-27T19:24:03.239Z,0.50
2023-02-27T19:26:35.417Z,0.55
2023-02-27T19:29:04.352Z,0.38
2023-02-27T19:31:33.253Z,0.29
2023-02-27T19:34:02.147Z,0.14
2023-02-27T19:36:31.937Z,0.02
2023-02-27T19:39:00.864Z,-0.06
2023-02-27T19:41:32.484Z,0.01
2023-02-27T19:44:03.565Z,0.27
2023-02-27T19:46:35.306Z,0.45
2023-02-27T19:49:06.097Z,0.49
2023-02-27T19:51:35.196Z,0.39
2023-02-27T19:54:04.054Z,0.20
2023-02-27T19:56:32.897Z,0.12
2023-02-27T19:59:02.951Z,0.33
2023-02-27T20:01:33.156Z,0.39
2023-02-27T20:04:02.035Z,0.27
2023-02-27T20:06:32.997Z,0.37
2023-02-27T20:09:01.846Z,-0.33
2023-02-27T20:11:30.935Z,-0.50
2023-02-27T20:13:59.409Z,-0.74
2023-02-27T20:16:30.813Z,-0.03
2023-02-27T20:18:59.575Z,-0.46
2023-02-27T20:21:28.776Z,-0.27
2023-02-27T20:23:58.047Z,0.04
2023-02-27T20:26:28.680Z,0.23
2023-02-27T20:28:59.176Z,0.33
2023-02-27T20:31:31.666Z,0.57
2023-02-27T20:34:01.180Z,0.43
2023-02-27T20:36:30.077Z,0.25
2023-02-27T20:38:58.521Z,0.26
2023-02-27T20:41:29.663Z,0.40
2023-02-27T20:43:58.734Z,0.33
2023-02-27T20:46:29.057Z,0.59
2023-02-27T20:49:00.405Z,0.66
2023-02-27T20:51:31.464Z,0.62
2023-02-27T20:54:00.994Z,0.64
2023-02-27T20:56:31.468Z,0.67
2023-02-27T20:59:02.409Z,0.42
2023-02-27T21:01:31.241Z,1.08
2023-02-27T21:04:01.440Z,0.28
2023-02-27T21:06:30.649Z,0.30
2023-02-27T21:09:00.166Z,0.49
2023-02-27T21:11:31.108Z,0.51
2023-02-27T21:14:02.949Z,0.37
2023-02-27T21:16:32.439Z,0.17
2023-02-27T21:19:02.444Z,0.38
2023-02-27T21:21:32.445Z,0.51
2023-02-27T21:24:01.114Z,0.47
2023-02-27T21:26:34.538Z,0.74
2023-02-27T21:29:05.579Z,0.76
2023-02-27T21:31:35.373Z,0.80
2023-02-27T21:34:07.556Z,0.94
2023-02-27T21:36:38.316Z,0.85
2023-02-27T21:39:08.039Z,0.82
2023-02-27T21:41:36.507Z,0.47
2023-02-27T21:44:08.996Z,0.69
2023-02-27T21:46:37.566Z,0.62
2023-02-27T21:49:07.425Z,0.98
2023-02-27T21:51:40.827Z,0.79
2023-02-27T21:54:12.303Z,1.03
2023-02-27T21:56:41.619Z,0.92
2023-02-27T21:59:09.846Z,0.72
2023-02-27T22:01:38.758Z,0.73
2023-02-27T22:04:08.660Z,0.93
2023-02-27T22:06:37.179Z,0.55
2023-02-27T22:09:07.157Z,0.12
2023-02-27T22:11:36.275Z,0.34
2023-02-27T22:14:05.079Z,0.34
2023-02-27T22:16:34.050Z,0.19
2023-02-27T22:19:06.232Z,0.45
2023-02-27T22:21:37.402Z,0.65
2023-02-27T22:24:06.466Z,0.59
2023-02-27T22:26:35.362Z,0.65
2023-02-27T22:29:03.816Z,0.42
2023-02-27T22:31:34.420Z,0.25
2023-02-27T22:34:04.570Z,0.20
2023-02-27T22:36:35.622Z,0.21
2023-02-27T22:39:04.649Z,0.21
2023-02-27T22:41:35.650Z,0.04
2023-02-27T22:44:04.200Z,-0.71
2023-02-27T22:46:34.899Z,-0.58
2023-02-27T22:49:05.354Z,0.04
2023-02-27T22:51:35.911Z,0.18
2023-02-27T22:54:06.143Z,-0.00
2023-02-27T22:56:36.518Z,-0.17
2023-02-27T22:59:05.282Z,0.01
2023-02-27T23:01:35.342Z,0.26
2023-02-27T23:04:05.656Z,-0.25
2023-02-27T23:06:38.891Z,-0.31
2023-02-27T23:09:08.722Z,-0.60
2023-02-27T23:11:39.977Z,-0.48
2023-02-27T23:14:08.351Z,-0.63
2023-02-27T23:16:37.252Z,-0.31
2023-02-27T23:19:06.136Z,-0.12
2023-02-27T23:21:37.118Z,0.07
2023-02-27T23:24:06.882Z,0.21
2023-02-27T23:26:37.593Z,0.45
2023-02-27T23:29:06.492Z,0.35
2023-02-27T23:31:35.801Z,0.32
2023-02-27T23:34:05.724Z,0.29
2023-02-27T23:36:36.030Z,0.55
2023-02-27T23:39:05.935Z,0.44
2023-02-27T23:41:34.926Z,0.43
2023-02-27T23:44:03.421Z,-0.02
2023-02-27T23:46:32.113Z,0.20
2023-02-27T23:49:00.964Z,0.38
2023-02-27T23:51:30.587Z,0.29
2023-02-27T23:54:01.054Z,0.58
2023-02-27T23:56:31.337Z,0.52
2023-02-27T23:59:01.638Z,0.57
